AirNav   Pilot Hours Calculator
 
 382 users online  

67AR Wedington Woods Airport
Fayetteville, Arkansas, USA

GOING TO FAYETTEVILLE?


FAA INFORMATION EFFECTIVE 10 OCTOBER 2019

Location

FAA Identifier: 67AR
Lat/Long: 36-05-52.0000N 094-18-27.0000W
36-05.866667N 094-18.450000W
36.0977778,-94.3075000
(estimated)
Elevation: 1090 ft. / 332 m (estimated)
Variation: 05E (1985)
From city: 7 miles W of FAYETTEVILLE, AR
Time zone: UTC -5 (UTC -6 during Standard Time)
Zip code: 72704

Airport Operations

Airport use: Private use. Permission required prior to landing
Activation date: 05/1973
Control tower: no
ARTCC: MEMPHIS CENTER
FSS: JONESBORO FLIGHT SERVICE STATION
Attendance: CONTINUOUS
Wind indicator: yes
Segmented circle: no

Airport Communications

WX ASOS at FYV (9 nm SE): 119.575 (479-442-5237)
WX AWOS-3 at ASG (10 nm NE): 124.675 (479-750-2967)
WX AWOS-3PT at SLG (10 nm NW): 118.375 (479-524-9893)
WX ASOS at XNA (11 nm N): 119.425 (479-203-0109)
WX AWOS-3PT at VBT (15 nm N): 134.975 (479-273-9198)
WX AWOS-3PT at ROG (19 nm NE): 134.375 (479-631-9196)

Nearby radio navigation aids

VOR radial/distance  VOR name  Freq  Var
RZCr221/12.7RAZORBACK VORTAC116.4004E

 
NDB name  Hdg/Dist  Freq  Var  ID
SILOAM SPRINGS118/10.328404ESLG ... .-.. --.

Airport Services

Airframe service: NONE
Powerplant service: NONE

Runway Information

Runway 17/35

Dimensions: 3100 x 50 ft. / 945 x 15 m
Surface: turf
RUNWAY 17  RUNWAY 35
Traffic pattern: leftleft
Obstructions: hillnone

Airport Ownership and Management from official FAA records

Ownership: Privately-owned
Owner: DAVID MOORE
16089 WINDSOCK LANE
FAYETTEVILLE, AR 72704
Phone (479) 310-5209
AND OTHER PROPERTY OWNERS.
Manager: DAVID MOORE
16089 WINDSOCK LANE
FAYETTEVILLE, AR 72704
Phone (479) 310-5209

Airport Operational Statistics

Aircraft based on the field: 9
Single engine airplanes: 9
    

Additional Remarks

FOR CD CTC RAZORBACK APCH 479-649-2416, WHEN APCH CLSD CTC MEMPHIS ARTCC AT 901-368-8453.

Instrument Procedures

There are no published instrument procedures at 67AR.

Some nearby airports with instrument procedures:

KFYV - Drake Field Airport (9 nm SE)
KASG - Springdale Municipal Airport (10 nm NE)
KSLG - Smith Field Airport (10 nm NW)
KXNA - Northwest Arkansas Regional Airport (11 nm N)
KVBT - Bentonville Municipal Airport/Louise M Thaden Field (15 nm N)
5M5 - Crystal Lake Airport (16 nm NW)
KROG - Rogers Executive Airport - Carter Field (19 nm NE)
 
Loc | Ops | Rwys | IFR | FBO | Links
Com | Nav | Svcs | Stats | Notes
Area around 67AR (Wedington Woods Airport)
 
Road maps at: MapQuest Bing Google
 
Aerial photo
WARNING: Photo may not be current or correct
Aerial photo of 67AR (Wedington Woods Airport)
Do you have a better or more recent aerial photo of Wedington Woods Airport that you would like to share? If so, please send us your photo.

 
Sectional chart

 
Airport distance calculator
Flying to Wedington Woods Airport? Find the distance to fly.

From to 67AR

Sunrise and sunset
Times for 18-Oct-2019
 Local
(UTC-5)
 Zulu
(UTC)
Morning civil twilight07:0212:02
Sunrise07:2812:28
Sunset18:3723:37
Evening civil twilight19:0300:03

Current date and time
Zulu (UTC)  18-Oct-2019 10:02:24
Local (UTC-5)  18-Oct-2019 05:02:24
 
METAR
KFYV 
8nm SE 
180953Z AUTO 00000KT 10SM CLR 06/06 A2994 RMK AO2 SLP133 T00610061
KSLG 
10nm NW 
180956Z AUTO 10003KT 10SM CLR 09/07 A2993 RMK AO2 SLP133 T00890067
KASG 
10nm NE 
180148Z 15004KT 10SM CLR 14/09 A2997
KXNA 
11nm N 
180953Z AUTO 00000KT 10SM CLR 07/05 A2993 RMK AO2 SLP131 T00720050
KVBT 
16nm N 
180956Z AUTO 13003KT 10SM CLR 09/07 A2995 RMK AO2 SLP141 T00890067
KROG 
19nm NE 
180958Z AUTO 12006KT 10SM CLR 09/07 A2994 RMK AO2 SLP130 T00940072
TAF
KFYV 
8nm SE 
180520Z 1806/1906 16003KT P6SM SCT250 FM181600 17011G17KT P6SM FEW250 FM190000 15006KT P6SM SKC
KXNA 
11nm N 
180520Z 1806/1906 16006KT P6SM SCT250 FM181600 17012G20KT P6SM FEW250 FM190000 15010KT P6SM SKC
KROG 
19nm NE 
180520Z 1806/1906 15008KT P6SM SCT250 FM181600 16013KT P6SM FEW250 FM190000 14011KT P6SM SKC
NOTAMs
Click for the latest NOTAMs
NOTAMs are issued by the DoD/FAA and will open in a separate window not controlled by AirNav.

 

 
 

Would you like to see your business listed on this page?

 If your business provides an interesting product or service to pilots, flight crews, aircraft, or users of the Wedington Woods Airport, you should consider listing it here.  To start the listing process, click on the button below
 
Add a business
 

Other Pages about Wedington Woods Airport

Update a link
 
Copyright © AirNav, LLC. All rights reserved. Privacy Policy  Contact